createdAt,value
2017-11-18T00:01:28.343Z,4.10
2017-11-18T00:03:55.855Z,4.10
2017-11-18T00:06:23.383Z,4.00
2017-11-18T00:08:50.935Z,3.90
2017-11-18T00:11:18.445Z,3.90
2017-11-18T00:13:46.724Z,3.70
2017-11-18T00:16:15.032Z,3.70
2017-11-18T00:18:42.583Z,3.70
2017-11-18T00:21:10.090Z,3.70
2017-11-18T00:23:37.653Z,3.60
2017-11-18T00:26:05.157Z,3.60
2017-11-18T00:28:32.670Z,3.60
2017-11-18T00:31:00.996Z,3.70
2017-11-18T00:33:28.498Z,3.70
2017-11-18T00:35:56.036Z,3.80
2017-11-18T00:38:23.541Z,3.80
2017-11-18T00:40:51.078Z,3.90
2017-11-18T00:43:18.579Z,3.90
2017-11-18T00:45:46.157Z,4.00
2017-11-18T00:48:13.630Z,4.00
2017-11-18T00:50:41.137Z,4.10
2017-11-18T00:53:08.683Z,4.10
2017-11-18T00:55:36.203Z,4.10
2017-11-18T00:58:03.737Z,4.10
2017-11-18T01:00:31.293Z,4.10
2017-11-18T01:02:58.791Z,4.10
2017-11-18T01:05:27.064Z,4.10
2017-11-18T01:07:54.594Z,4.10
2017-11-18T01:10:22.103Z,4.10
2017-11-18T01:12:50.414Z,4.10
2017-11-18T01:15:17.921Z,4.10
2017-11-18T01:17:45.487Z,4.10
2017-11-18T01:20:13.783Z,4.10
2017-11-18T01:22:41.335Z,4.10
2017-11-18T01:25:08.835Z,4.10
2017-11-18T01:27:36.331Z,4.10
2017-11-18T01:30:04.622Z,4.10
2017-11-18T01:32:32.150Z,4.10
2017-11-18T01:34:59.682Z,4.10
2017-11-18T01:37:27.190Z,4.10
2017-11-18T01:39:54.722Z,4.10
2017-11-18T01:42:22.233Z,4.10
2017-11-18T01:44:49.772Z,4.10
2017-11-18T01:47:17.296Z,4.10
2017-11-18T01:49:45.564Z,4.10
2017-11-18T01:52:13.086Z,4.10
2017-11-18T01:54:40.585Z,4.20
2017-11-18T01:57:08.121Z,4.20
2017-11-18T01:59:35.619Z,4.20
2017-11-18T02:02:03.889Z,4.10
2017-11-18T02:04:32.178Z,4.10
2017-11-18T02:06:59.687Z,4.10
2017-11-18T02:09:27.187Z,4.10
2017-11-18T02:11:54.704Z,4.10
2017-11-18T02:14:22.216Z,4.10
2017-11-18T02:16:49.736Z,4.10
2017-11-18T02:19:17.247Z,4.10
2017-11-18T02:21:44.772Z,4.10
2017-11-18T02:24:12.293Z,4.10
2017-11-18T02:26:39.826Z,4.10
2017-11-18T02:29:07.352Z,4.10
2017-11-18T02:31:34.855Z,4.10
2017-11-18T02:34:02.366Z,4.10
2017-11-18T02:36:29.894Z,4.10
2017-11-18T02:38:58.167Z,4.10
2017-11-18T02:41:26.478Z,4.10
2017-11-18T02:43:54.750Z,4.10
2017-11-18T02:46:22.246Z,4.10
2017-11-18T02:48:49.756Z,4.10
2017-11-18T02:51:17.262Z,4.10
2017-11-18T02:53:44.770Z,4.10
2017-11-18T02:56:12.280Z,4.10
2017-11-18T02:58:39.798Z,4.10
2017-11-18T03:01:07.314Z,4.10
2017-11-18T03:03:35.576Z,4.10
2017-11-18T03:06:03.118Z,4.10
2017-11-18T03:08:30.610Z,4.10
2017-11-18T03:10:58.901Z,4.10
2017-11-18T03:13:26.417Z,4.10
2017-11-18T03:15:53.933Z,4.10
2017-11-18T03:18:21.444Z,4.00
2017-11-18T03:20:49.723Z,4.00
2017-11-18T03:23:18.010Z,3.90
2017-11-18T03:25:46.288Z,4.00
2017-11-18T03:28:13.799Z,3.90
2017-11-18T03:30:41.327Z,3.90
2017-11-18T03:33:08.856Z,3.90
2017-11-18T03:35:37.123Z,3.90
2017-11-18T03:38:05.396Z,3.90
2017-11-18T03:40:33.694Z,3.90
2017-11-18T03:43:01.210Z,3.90
2017-11-18T03:45:28.714Z,3.90
2017-11-18T03:47:56.240Z,3.90
2017-11-18T03:50:24.503Z,3.90
2017-11-18T03:52:52.017Z,3.90
2017-11-18T03:55:19.527Z,3.90
2017-11-18T03:57:47.058Z,3.90
2017-11-18T04:00:24.305Z,3.90
2017-11-18T04:02:51.841Z,3.90
2017-11-18T04:05:20.138Z,3.90
2017-11-18T04:07:47.629Z,3.90
2017-11-18T04:10:15.117Z,3.90
2017-11-18T04:12:43.436Z,4.00
2017-11-18T04:15:10.933Z,3.90
2017-11-18T04:17:38.461Z,4.00
2017-11-18T04:20:05.954Z,4.00
2017-11-18T04:22:33.500Z,4.00
2017-11-18T04:25:01.028Z,4.00
2017-11-18T04:27:28.687Z,3.90
2017-11-18T04:29:57.004Z,3.90
2017-11-18T04:32:25.230Z,3.90
2017-11-18T04:34:53.520Z,3.80
2017-11-18T04:37:21.802Z,3.80
2017-11-18T04:39:49.311Z,3.80
2017-11-18T04:42:16.855Z,3.80
2017-11-18T04:44:44.344Z,3.80
2017-11-18T04:47:11.851Z,3.90
2017-11-18T04:49:39.390Z,3.90
2017-11-18T04:52:06.900Z,3.90
2017-11-18T04:54:34.414Z,3.90
2017-11-18T04:57:01.960Z,3.90
2017-11-18T04:59:29.473Z,3.90
2017-11-18T05:01:56.980Z,3.80
2017-11-18T05:04:24.517Z,3.80
2017-11-18T05:06:52.796Z,3.90
2017-11-18T05:09:21.085Z,3.90
2017-11-18T05:11:48.584Z,3.80
2017-11-18T05:14:16.077Z,3.90
2017-11-18T05:16:44.374Z,3.90
2017-11-18T05:19:11.873Z,3.90
2017-11-18T05:21:39.427Z,3.90
2017-11-18T05:24:06.938Z,3.90
2017-11-18T05:26:34.457Z,3.90
2017-11-18T05:29:01.985Z,4.00
2017-11-18T05:31:29.489Z,4.00
2017-11-18T05:33:57.779Z,4.00
2017-11-18T05:36:25.312Z,4.00
2017-11-18T05:38:52.835Z,4.10
2017-11-18T05:41:21.112Z,4.10
2017-11-18T05:43:48.639Z,4.00
2017-11-18T05:46:16.215Z,4.10
2017-11-18T05:48:43.768Z,4.10
2017-11-18T05:51:11.312Z,4.10
2017-11-18T05:53:38.843Z,4.10
2017-11-18T05:56:07.110Z,4.10
2017-11-18T05:58:34.746Z,4.10
2017-11-18T06:01:02.326Z,4.10
2017-11-18T06:06:42.947Z,4.10
2017-11-18T06:09:10.445Z,4.10
2017-11-18T06:11:38.316Z,4.10
2017-11-18T06:27:52.360Z,4.10
2017-11-18T06:30:20.660Z,4.10
2017-11-18T06:32:48.149Z,4.10
2017-11-18T06:35:15.636Z,4.10
2017-11-18T06:37:43.173Z,4.10
2017-11-18T06:40:10.674Z,4.10
2017-11-18T06:42:38.967Z,4.10
2017-11-18T06:45:06.461Z,4.10
2017-11-18T06:47:33.963Z,4.10
2017-11-18T06:50:25.154Z,4.10
2017-11-18T06:52:53.443Z,4.20
2017-11-18T06:55:21.745Z,4.20
2017-11-18T06:57:49.257Z,4.10
2017-11-18T07:00:16.764Z,4.10
2017-11-18T07:02:48.099Z,4.10
2017-11-18T07:05:15.646Z,4.10
2017-11-18T07:07:43.941Z,4.20
2017-11-18T07:10:11.454Z,4.10
2017-11-18T07:12:38.985Z,4.20
2017-11-18T07:15:06.476Z,4.20
2017-11-18T07:17:38.102Z,4.30
2017-11-18T07:20:05.609Z,4.30
2017-11-18T07:22:33.138Z,4.30
2017-11-18T07:25:00.714Z,4.30
2017-11-18T07:27:28.225Z,4.30
2017-11-18T07:29:55.726Z,4.30
2017-11-18T07:32:24.031Z,4.30
2017-11-18T07:34:51.526Z,4.30
2017-11-18T07:37:19.067Z,4.30
2017-11-18T07:39:46.584Z,4.30
2017-11-18T07:42:14.096Z,4.20
2017-11-18T07:44:41.622Z,4.20
2017-11-18T07:47:09.121Z,4.10
2017-11-18T07:49:36.663Z,4.10
2017-11-18T07:52:04.157Z,4.10
2017-11-18T07:54:32.425Z,4.20
2017-11-18T07:57:00.725Z,4.20
2017-11-18T07:59:28.229Z,4.20
2017-11-18T08:01:55.772Z,4.20
2017-11-18T08:04:23.294Z,4.20
2017-11-18T08:06:50.781Z,4.20
2017-11-18T08:09:18.305Z,4.20
2017-11-18T08:11:45.826Z,4.20
2017-11-18T08:14:13.325Z,4.20
2017-11-18T08:16:40.858Z,4.10
2017-11-18T08:19:09.118Z,4.10
2017-11-18T08:21:36.649Z,4.10
2017-11-18T08:24:04.132Z,4.20
2017-11-18T08:26:31.629Z,4.20
2017-11-18T08:28:59.178Z,4.10
2017-11-18T08:31:26.670Z,4.10
2017-11-18T08:33:54.165Z,4.10
2017-11-18T08:36:33.589Z,4.20
2017-11-18T08:39:01.117Z,4.20
2017-11-18T08:41:28.610Z,4.10
2017-11-18T08:43:56.888Z,4.20
2017-11-18T08:46:25.205Z,4.20
2017-11-18T08:48:52.752Z,4.20
2017-11-18T08:51:20.254Z,4.20
2017-11-18T08:53:47.757Z,4.20
2017-11-18T08:56:15.297Z,4.20
2017-11-18T08:58:43.557Z,4.30
2017-11-18T09:01:11.058Z,4.30
2017-11-18T09:03:38.593Z,4.30
2017-11-18T09:06:06.114Z,4.40
2017-11-18T09:08:33.614Z,4.40
2017-11-18T09:11:01.150Z,4.40
2017-11-18T09:13:29.452Z,4.40
2017-11-18T09:15:56.950Z,4.40
2017-11-18T09:18:24.469Z,4.40
2017-11-18T09:20:52.009Z,4.30
2017-11-18T09:23:20.295Z,4.20
2017-11-18T09:25:47.815Z,4.20
2017-11-18T09:28:15.374Z,4.20
2017-11-18T09:30:42.870Z,4.30
2017-11-18T09:33:10.368Z,4.30
2017-11-18T09:35:37.910Z,4.40
2017-11-18T09:38:05.504Z,4.40
2017-11-18T09:40:33.061Z,4.50
2017-11-18T09:43:00.567Z,4.50
2017-11-18T09:45:28.075Z,4.50
2017-11-18T09:47:55.609Z,4.50
2017-11-18T09:50:23.104Z,4.50
2017-11-18T09:52:56.196Z,4.60
2017-11-18T09:55:28.051Z,4.50
2017-11-18T09:57:55.612Z,4.50
2017-11-18T10:00:23.889Z,4.50
2017-11-18T10:02:51.477Z,4.50
2017-11-18T10:05:19.019Z,4.50
2017-11-18T10:07:46.554Z,4.50
2017-11-18T10:10:14.054Z,4.50
2017-11-18T10:12:41.582Z,4.50
2017-11-18T10:15:09.847Z,4.40
2017-11-18T10:17:38.125Z,4.40
2017-11-18T10:20:06.432Z,4.30
2017-11-18T10:22:33.941Z,4.30
2017-11-18T10:25:01.497Z,4.30
2017-11-18T10:27:29.006Z,4.40
2017-11-18T10:29:56.541Z,4.40
2017-11-18T10:32:24.086Z,4.40
2017-11-18T10:34:51.653Z,4.40
2017-11-18T10:37:19.951Z,4.40
2017-11-18T10:39:47.466Z,4.40
2017-11-18T10:42:15.773Z,4.40
2017-11-18T10:44:43.315Z,4.40
2017-11-18T10:47:10.830Z,4.40
2017-11-18T10:49:38.359Z,4.30
2017-11-18T10:52:05.911Z,4.30
2017-11-18T10:54:33.425Z,4.30
2017-11-18T10:57:01.714Z,4.30
2017-11-18T10:59:30.014Z,4.30
2017-11-18T11:01:57.541Z,4.30
2017-11-18T11:04:25.089Z,4.40
2017-11-18T11:06:52.650Z,4.30
2017-11-18T11:09:20.186Z,4.30
2017-11-18T11:11:47.699Z,4.40
2017-11-18T11:14:15.207Z,4.40
2017-11-18T11:16:42.754Z,4.40
2017-11-18T11:19:10.283Z,4.30
2017-11-18T11:21:37.785Z,4.30
2017-11-18T11:24:05.343Z,4.30
2017-11-18T11:26:32.881Z,4.30
2017-11-18T11:29:00.378Z,4.30
2017-11-18T11:31:28.652Z,4.30
2017-11-18T11:33:57.015Z,4.40
2017-11-18T11:36:24.518Z,4.40
2017-11-18T11:38:52.572Z,4.40
2017-11-18T11:41:20.274Z,4.40
2017-11-18T11:43:48.274Z,4.40
2017-11-18T11:46:16.173Z,4.30
2017-11-18T11:48:43.664Z,4.30
2017-11-18T11:51:11.217Z,4.40
2017-11-18T11:53:38.724Z,4.30
2017-11-18T11:56:07.047Z,4.30
2017-11-18T11:58:34.554Z,4.20
2017-11-18T12:01:02.854Z,4.30
2017-11-18T12:03:30.385Z,4.30
2017-11-18T12:05:58.707Z,4.30
2017-11-18T12:08:26.213Z,4.30
2017-11-18T12:10:53.715Z,4.30
2017-11-18T12:13:21.363Z,4.30
2017-11-18T12:15:48.857Z,4.30
2017-11-18T12:20:51.264Z,4.20
2017-11-18T12:23:19.930Z,4.20
2017-11-18T12:25:47.538Z,4.20
2017-11-18T12:28:15.234Z,4.30
2017-11-18T12:30:42.767Z,4.20
2017-11-18T12:33:10.855Z,4.30
2017-11-18T12:35:39.009Z,4.30
2017-11-18T12:38:06.561Z,4.30
2017-11-18T12:40:34.361Z,4.40
2017-11-18T12:43:01.881Z,4.30
2017-11-18T12:45:29.898Z,4.40
2017-11-18T12:47:57.821Z,4.40
2017-11-18T12:50:25.329Z,4.40
2017-11-18T12:52:54.155Z,4.50
2017-11-18T12:55:22.125Z,4.50
2017-11-18T12:57:49.688Z,4.50
2017-11-18T13:00:17.238Z,4.50
2017-11-18T13:02:44.751Z,4.50
2017-11-18T13:05:12.292Z,4.50
2017-11-18T13:07:39.838Z,4.50
2017-11-18T13:10:07.383Z,4.60
2017-11-18T13:12:34.890Z,4.60
2017-11-18T13:15:02.448Z,4.60
2017-11-18T13:17:29.946Z,4.60
2017-11-18T13:19:57.446Z,4.60
2017-11-18T13:22:24.982Z,4.60
2017-11-18T13:24:52.526Z,4.60
2017-11-18T13:27:20.056Z,4.60
2017-11-18T13:29:48.316Z,4.60
2017-11-18T13:32:15.877Z,4.60
2017-11-18T13:34:43.434Z,4.60
2017-11-18T13:37:11.706Z,4.80
2017-11-18T13:39:39.201Z,4.80
2017-11-18T13:42:06.733Z,4.80
2017-11-18T13:44:35.007Z,4.90
2017-11-18T13:47:03.297Z,4.90
2017-11-18T13:49:31.617Z,5.00
2017-11-18T13:51:59.133Z,4.90
2017-11-18T13:54:26.650Z,4.90
2017-11-18T13:56:54.186Z,4.90
2017-11-18T13:59:21.733Z,4.90
2017-11-18T14:01:49.231Z,4.80
2017-11-18T14:04:16.767Z,4.80
2017-11-18T14:06:44.283Z,4.70
2017-11-18T14:09:11.800Z,4.70
2017-11-18T14:11:40.106Z,4.60
2017-11-18T14:14:07.641Z,4.60
2017-11-18T14:16:35.905Z,4.60
2017-11-18T14:19:04.210Z,4.60
2017-11-18T14:21:31.724Z,4.50
2017-11-18T14:23:59.307Z,4.60
2017-11-18T14:26:27.606Z,4.40
2017-11-18T14:28:55.145Z,4.40
2017-11-18T14:31:23.481Z,4.40
2017-11-18T14:33:50.976Z,4.40
2017-11-18T14:36:28.953Z,4.40
2017-11-18T14:38:57.254Z,4.40
2017-11-18T14:41:25.672Z,4.40
2017-11-18T14:43:53.190Z,4.40
2017-11-18T14:46:21.456Z,4.50
2017-11-18T14:48:49.154Z,4.50
2017-11-18T14:51:16.651Z,4.50
2017-11-18T14:53:44.365Z,4.50
2017-11-18T14:56:12.102Z,4.50
2017-11-18T14:58:40.490Z,4.40
2017-11-18T15:01:08.761Z,4.40
2017-11-18T15:03:37.066Z,4.40
2017-11-18T15:06:04.602Z,4.40
2017-11-18T15:08:32.149Z,4.40
2017-11-18T15:11:01.484Z,4.40
2017-11-18T15:13:29.053Z,4.40
2017-11-18T15:15:58.205Z,4.40
2017-11-18T15:21:35.015Z,4.30
2017-11-18T15:24:18.141Z,4.30
2017-11-18T15:30:02.254Z,4.30
2017-11-18T15:32:34.359Z,4.30
2017-11-18T15:35:19.556Z,4.30
2017-11-18T15:37:52.700Z,4.30
2017-11-18T15:40:20.957Z,4.30
2017-11-18T15:42:48.490Z,4.30
2017-11-18T15:45:21.632Z,4.30
2017-11-18T15:51:00.434Z,4.30
2017-11-18T15:53:46.748Z,4.30
2017-11-18T15:56:15.719Z,4.20
2017-11-18T15:58:44.699Z,4.20
2017-11-18T16:01:17.792Z,4.20
2017-11-18T16:03:46.561Z,4.20
2017-11-18T16:06:14.097Z,4.20
2017-11-18T16:08:41.642Z,4.10
2017-11-18T16:11:09.166Z,4.10
2017-11-18T16:13:36.668Z,4.10
2017-11-18T16:16:04.199Z,4.00
2017-11-18T16:18:32.469Z,4.00
2017-11-18T16:21:00.774Z,4.10
2017-11-18T16:23:28.279Z,4.00
2017-11-18T16:25:56.640Z,4.10
2017-11-18T16:28:24.141Z,4.00
2017-11-18T16:30:51.678Z,4.10
2017-11-18T16:33:19.242Z,4.10
2017-11-18T16:35:46.869Z,4.10
2017-11-18T16:38:14.377Z,4.00
2017-11-18T16:40:42.762Z,4.00
2017-11-18T16:43:10.282Z,3.90
2017-11-18T16:45:37.847Z,3.90
2017-11-18T16:48:05.394Z,3.90
2017-11-18T16:50:32.889Z,4.00
2017-11-18T16:53:00.421Z,4.00
2017-11-18T16:55:27.950Z,4.00
2017-11-18T16:57:56.585Z,4.00
2017-11-18T17:00:24.121Z,4.00
2017-11-18T17:02:51.629Z,4.00
2017-11-18T17:05:31.230Z,4.00
2017-11-18T17:07:58.783Z,4.00
2017-11-18T17:10:26.310Z,4.00
2017-11-18T17:12:54.576Z,4.00
2017-11-18T17:15:22.889Z,4.00
2017-11-18T17:17:50.515Z,4.00
2017-11-18T17:20:18.022Z,4.00
2017-11-18T17:22:45.536Z,4.00
2017-11-18T17:25:13.046Z,4.10
2017-11-18T17:27:40.533Z,4.10
2017-11-18T17:30:08.035Z,4.10
2017-11-18T17:32:35.554Z,4.20
2017-11-18T17:35:03.838Z,4.20
2017-11-18T17:37:31.397Z,4.20
2017-11-18T17:39:58.905Z,4.20
2017-11-18T17:42:26.465Z,4.20
2017-11-18T17:44:53.966Z,4.20
2017-11-18T17:47:21.498Z,4.20
2017-11-18T17:49:49.028Z,4.20
2017-11-18T17:52:16.561Z,4.20
2017-11-18T17:54:44.050Z,4.20
2017-11-18T17:57:11.538Z,4.20
2017-11-18T17:59:39.828Z,4.20
2017-11-18T18:02:08.093Z,4.20
2017-11-18T18:04:35.766Z,4.20
2017-11-18T18:07:04.038Z,4.20
2017-11-18T18:09:32.312Z,4.20
2017-11-18T18:12:00.593Z,4.20
2017-11-18T18:14:28.894Z,4.20
2017-11-18T18:16:56.409Z,4.20
2017-11-18T18:19:23.911Z,4.20
2017-11-18T18:21:51.441Z,4.20
2017-11-18T18:24:19.138Z,4.20
2017-11-18T18:26:46.642Z,4.20
2017-11-18T18:29:14.928Z,4.10
2017-11-18T18:31:43.204Z,4.10
2017-11-18T18:34:11.528Z,4.10
2017-11-18T18:36:39.044Z,4.10
2017-11-18T18:39:06.618Z,4.20
2017-11-18T18:41:34.126Z,4.10
2017-11-18T18:44:02.398Z,4.10
2017-11-18T18:46:29.938Z,4.10
2017-11-18T18:48:57.426Z,4.10
2017-11-18T18:51:24.964Z,4.10
2017-11-18T18:53:52.469Z,4.10
2017-11-18T18:56:19.992Z,4.10
2017-11-18T18:58:47.675Z,4.00
2017-11-18T19:01:15.941Z,4.00
2017-11-18T19:03:44.367Z,4.10
2017-11-18T19:06:11.870Z,4.00
2017-11-18T19:08:40.150Z,4.00
2017-11-18T19:11:08.454Z,4.00
2017-11-18T19:13:35.972Z,4.00
2017-11-18T19:16:04.261Z,4.00
2017-11-18T19:18:32.541Z,4.00
2017-11-18T19:21:00.893Z,4.00
2017-11-18T19:23:28.417Z,3.90
2017-11-18T19:25:55.911Z,4.00
2017-11-18T19:28:24.249Z,4.00
2017-11-18T19:30:51.770Z,3.90
2017-11-18T19:33:19.277Z,4.00
2017-11-18T19:35:46.868Z,4.00
2017-11-18T19:38:14.372Z,4.00
2017-11-18T19:40:41.900Z,4.00
2017-11-18T19:43:09.419Z,4.00
2017-11-18T19:45:36.938Z,4.00
2017-11-18T19:48:04.478Z,4.00
2017-11-18T19:50:31.986Z,4.00
2017-11-18T19:52:59.503Z,3.90
2017-11-18T19:55:27.019Z,3.90
2017-11-18T19:57:55.302Z,3.90
2017-11-18T20:00:23.601Z,3.90
2017-11-18T20:02:51.094Z,3.90
2017-11-18T20:05:18.710Z,3.90
2017-11-18T20:07:46.215Z,3.90
2017-11-18T20:10:13.883Z,3.90
2017-11-18T20:12:41.412Z,3.90
2017-11-18T20:15:08.968Z,3.90
2017-11-18T20:17:36.496Z,3.90
2017-11-18T20:20:04.935Z,3.90
2017-11-18T20:22:32.473Z,3.90
2017-11-18T20:24:59.978Z,3.90
2017-11-18T20:27:27.501Z,3.90
2017-11-18T20:29:55.022Z,3.90
2017-11-18T20:32:22.538Z,3.90
2017-11-18T20:34:50.041Z,3.90
2017-11-18T20:37:17.772Z,3.90
2017-11-18T20:39:46.050Z,3.90
2017-11-18T20:42:14.326Z,3.90
2017-11-18T20:44:42.637Z,3.90
2017-11-18T20:47:10.135Z,3.90
2017-11-18T20:49:37.751Z,3.90
2017-11-18T20:52:05.267Z,3.90
2017-11-18T20:54:33.553Z,3.80
2017-11-18T20:57:01.094Z,3.80
2017-11-18T20:59:29.408Z,3.80
2017-11-18T21:01:56.951Z,3.80
2017-11-18T21:04:24.485Z,3.80
2017-11-18T21:06:52.021Z,3.80
2017-11-18T21:09:19.523Z,3.70
2017-11-18T21:11:47.040Z,3.80
2017-11-18T21:14:14.573Z,3.70
2017-11-18T21:16:42.079Z,3.70
2017-11-18T21:19:09.609Z,3.60
2017-11-18T21:21:37.137Z,3.60
2017-11-18T21:24:04.641Z,3.60
2017-11-18T21:26:32.943Z,3.70
2017-11-18T21:29:00.438Z,3.60
2017-11-18T21:31:27.942Z,3.70
2017-11-18T21:33:56.291Z,3.70
2017-11-18T21:36:23.803Z,3.70
2017-11-18T21:38:51.560Z,3.70
2017-11-18T21:41:19.085Z,3.70
2017-11-18T21:43:47.345Z,3.70
2017-11-18T21:46:14.863Z,3.70
2017-11-18T21:48:42.357Z,3.70
2017-11-18T21:51:09.898Z,3.70
2017-11-18T21:53:37.402Z,3.70
2017-11-18T21:56:04.931Z,3.70
2017-11-18T21:58:32.440Z,3.70
2017-11-18T22:00:59.979Z,3.80
2017-11-18T22:03:27.480Z,3.80
2017-11-18T22:05:55.004Z,3.70
2017-11-18T22:08:26.334Z,3.70
2017-11-18T22:10:53.827Z,3.70
2017-11-18T22:13:21.437Z,3.70
2017-11-18T22:15:49.721Z,3.70
2017-11-18T22:18:17.228Z,3.70
2017-11-18T22:20:44.744Z,3.70
2017-11-18T22:23:12.254Z,3.60
2017-11-18T22:25:39.775Z,3.60
2017-11-18T22:28:07.279Z,3.60
2017-11-18T22:30:35.587Z,3.60
2017-11-18T22:33:03.106Z,3.60
2017-11-18T22:35:30.617Z,3.60
2017-11-18T22:37:59.260Z,3.60
2017-11-18T22:40:27.550Z,3.60
2017-11-18T22:42:55.835Z,3.50
2017-11-18T22:45:23.354Z,3.50
2017-11-18T22:47:50.862Z,3.50
2017-11-18T22:50:18.385Z,3.40
2017-11-18T22:52:46.672Z,3.30
2017-11-18T22:55:14.207Z,3.30
2017-11-18T22:57:41.713Z,3.30
2017-11-18T23:00:09.239Z,3.30
2017-11-18T23:02:37.541Z,3.10
2017-11-18T23:05:05.045Z,3.10
2017-11-18T23:07:32.574Z,3.10
2017-11-18T23:12:41.875Z,3.10
2017-11-18T23:15:10.146Z,3.20
2017-11-18T23:17:38.422Z,3.20
2017-11-18T23:20:05.946Z,3.20
2017-11-18T23:22:33.450Z,3.20
2017-11-18T23:25:00.961Z,3.20
2017-11-18T23:27:28.469Z,3.20
2017-11-18T23:29:55.987Z,3.20
2017-11-18T23:32:23.556Z,3.20
2017-11-18T23:34:51.818Z,3.20
2017-11-18T23:37:19.335Z,3.20
2017-11-18T23:39:46.851Z,3.20
2017-11-18T23:42:15.127Z,3.20
2017-11-18T23:44:42.657Z,3.20
2017-11-18T23:47:10.161Z,3.20
2017-11-18T23:49:37.690Z,3.20
2017-11-18T23:52:05.971Z,3.20
2017-11-18T23:54:34.251Z,3.20
2017-11-18T23:57:02.531Z,3.10
2017-11-18T23:59:30.049Z,3.10
